Time;durP1;ratioP1;P1;durP2;ratioP2;P2;SDS_P1;SDS_P2;PMS_P1;PMS_P2;Temp;Humidity;BMP_temperature;BMP_pressure;BME280_temperature;BME280_humidity;BME280_pressure;Samples;Min_cycle;Max_cycle;Signal;HPM_P1;HPM_P2
2022/12/11 00:00:37;;;;;;;60.78;24.33;;;;;;;;;;5076471;28;20038;-78
2022/12/11 00:03:03;;;;;;;66.80;25.02;;;;;;;;;;5042005;28;20067;-78
2022/12/11 00:05:28;;;;;;;79.75;30.38;;;;;;;;;;5076344;28;20056;-79
2022/12/11 00:07:53;;;;;;;75.28;28.70;;;;;;;;;;5076485;28;20086;-78
2022/12/11 00:10:20;;;;;;;93.78;37.78;;;;;;;;;;5058504;28;20028;-79
2022/12/11 00:12:45;;;;;;;87.30;36.72;;;;;;;;;;5076094;28;20123;-78
2022/12/11 00:15:11;;;;;;;81.60;29.10;;;;;;;;;;5074747;28;20127;-78
2022/12/11 00:17:36;;;;;;;72.03;26.23;;;;;;;;;;5058376;28;20044;-78
2022/12/11 00:20:02;;;;;;;79.97;30.98;;;;;;;;;;5058476;28;20093;-78
2022/12/11 00:22:29;;;;;;;83.63;32.33;;;;;;;;;;5057983;28;20123;-79
2022/12/11 00:24:55;;;;;;;81.72;28.70;;;;;;;;;;5058074;28;20036;-78
2022/12/11 00:27:21;;;;;;;81.43;27.48;;;;;;;;;;5076100;28;20035;-78
2022/12/11 00:29:46;;;;;;;78.88;26.63;;;;;;;;;;5059012;28;20028;-78
2022/12/11 00:32:12;;;;;;;75.25;27.38;;;;;;;;;;5076230;28;20430;-78
2022/12/11 00:34:38;;;;;;;72.80;27.40;;;;;;;;;;5075902;28;20040;-78
2022/12/11 00:37:04;;;;;;;80.95;25.38;;;;;;;;;;5058228;28;20074;-79
2022/12/11 00:39:30;;;;;;;75.53;26.20;;;;;;;;;;5075902;28;20028;-78
2022/12/11 00:41:55;;;;;;;65.13;24.52;;;;;;;;;;5091579;28;20043;-78
2022/12/11 00:44:21;;;;;;;70.47;25.45;;;;;;;;;;5057952;28;20029;-78
2022/12/11 00:46:46;;;;;;;66.68;26.25;;;;;;;;;;5075951;28;20064;-79
2022/12/11 00:49:11;;;;;;;73.65;25.90;;;;;;;;;;5075665;28;20029;-78
2022/12/11 00:51:37;;;;;;;79.57;27.80;;;;;;;;;;5057792;28;20029;-78
2022/12/11 00:54:03;;;;;;;71.30;25.05;;;;;;;;;;5057710;28;20036;-78
2022/12/11 00:56:28;;;;;;;72.18;28.52;;;;;;;;;;5075372;28;20029;-78
2022/12/11 00:58:53;;;;;;;73.05;28.98;;;;;;;;;;5075388;28;20396;-79
2022/12/11 01:01:21;;;;;;;90.65;31.25;;;;;;;;;;5075381;28;20048;-78
2022/12/11 01:03:47;;;;;;;86.78;30.08;;;;;;;;;;5057573;28;20126;-78
2022/12/11 01:06:14;;;;;;;86.22;31.77;;;;;;;;;;5075417;28;20111;-78
2022/12/11 01:08:39;;;;;;;78.70;30.02;;;;;;;;;;5057569;28;20029;-78
2022/12/11 01:11:07;;;;;;;84.80;29.75;;;;;;;;;;5075291;28;20086;-78
2022/12/11 01:13:32;;;;;;;77.43;30.58;;;;;;;;;;5074929;28;20059;-78
2022/12/11 01:15:58;;;;;;;78.60;29.65;;;;;;;;;;5075070;28;20029;-78
2022/12/11 01:18:23;;;;;;;78.20;29.95;;;;;;;;;;5057355;28;20024;-78
2022/12/11 01:20:48;;;;;;;69.25;28.63;;;;;;;;;;5075050;28;20119;-78
2022/12/11 01:23:14;;;;;;;72.00;27.80;;;;;;;;;;5075145;28;20087;-79
2022/12/11 01:25:39;;;;;;;64.20;27.80;;;;;;;;;;5075617;28;20033;-78
2022/12/11 01:28:05;;;;;;;66.60;26.23;;;;;;;;;;5057195;28;20024;-78
2022/12/11 01:30:30;;;;;;;59.30;25.85;;;;;;;;;;5074864;28;20028;-78
2022/12/11 01:32:56;;;;;;;57.88;25.17;;;;;;;;;;5074795;28;20461;-78
2022/12/11 01:35:21;;;;;;;55.97;25.30;;;;;;;;;;5073980;28;20342;-78
2022/12/11 01:37:47;;;;;;;56.50;23.88;;;;;;;;;;5074775;28;20040;-78
2022/12/11 01:40:15;;;;;;;49.47;22.23;;;;;;;;;;5090892;28;20033;-79
2022/12/11 01:42:42;;;;;;;46.90;22.23;;;;;;;;;;5090362;28;20357;-78
2022/12/11 01:45:31;;;;;;;51.78;23.20;;;;;;;;;;5074726;28;20472;-79
2022/12/11 01:48:01;;;;;;;44.58;20.73;;;;;;;;;;5056746;28;20033;-78
2022/12/11 01:50:27;;;;;;;47.22;20.70;;;;;;;;;;5074548;28;20437;-78
2022/12/11 01:52:53;;;;;;;38.88;18.73;;;;;;;;;;5056597;28;20033;-78
2022/12/11 01:55:19;;;;;;;47.38;20.88;;;;;;;;;;5056708;28;20024;-78
2022/12/11 01:57:46;;;;;;;43.05;20.60;;;;;;;;;;5056578;28;20040;-78
2022/12/11 02:00:12;;;;;;;56.20;22.88;;;;;;;;;;5056635;28;20028;-78
2022/12/11 02:02:37;;;;;;;48.55;20.75;;;;;;;;;;5074336;28;20024;-78
2022/12/11 02:05:04;;;;;;;46.00;20.42;;;;;;;;;;5074853;28;20032;-78
2022/12/11 02:07:33;;;;;;;46.90;20.92;;;;;;;;;;5040042;28;20058;-78
2022/12/11 02:09:59;;;;;;;51.58;21.67;;;;;;;;;;5040235;28;20143;-78
2022/12/11 02:13:00;;;;;;;47.78;21.58;;;;;;;;;;5052985;28;20503;-78
2022/12/11 02:15:46;;;;;;;52.47;21.75;;;;;;;;;;5052163;28;20136;-78
2022/12/11 02:18:31;;;;;;;62.70;23.85;;;;;;;;;;5053075;28;20086;-78
2022/12/11 02:21:03;;;;;;;59.08;24.25;;;;;;;;;;5054229;28;20056;-78
2022/12/11 02:23:43;;;;;;;67.18;26.50;;;;;;;;;;5053311;28;20043;-78
2022/12/11 02:26:27;;;;;;;67.40;25.15;;;;;;;;;;5054141;28;20357;-79
2022/12/11 02:28:57;;;;;;;63.42;23.85;;;;;;;;;;5068240;28;20029;-78
2022/12/11 02:31:22;;;;;;;63.83;25.80;;;;;;;;;;5069479;28;20446;-78
2022/12/11 02:33:55;;;;;;;61.58;26.05;;;;;;;;;;5053893;28;20040;-79
2022/12/11 02:36:21;;;;;;;73.90;28.38;;;;;;;;;;5069234;28;20074;-78
2022/12/11 02:38:49;;;;;;;74.72;28.25;;;;;;;;;;5052624;28;20397;-78
2022/12/11 02:41:15;;;;;;;70.05;27.38;;;;;;;;;;5052949;28;20044;-78
2022/12/11 02:43:40;;;;;;;66.78;27.65;;;;;;;;;;5052667;28;20450;-77
2022/12/11 02:46:06;;;;;;;69.43;28.95;;;;;;;;;;5054210;28;20025;-79
2022/12/11 02:48:31;;;;;;;73.15;29.65;;;;;;;;;;5056738;28;20028;-78
2022/12/11 02:50:57;;;;;;;67.63;28.13;;;;;;;;;;5040200;28;20090;-78
2022/12/11 02:53:25;;;;;;;67.10;27.92;;;;;;;;;;5056932;28;20082;-79
2022/12/11 02:55:53;;;;;;;67.68;27.27;;;;;;;;;;5056632;28;20021;-78
2022/12/11 02:58:23;;;;;;;77.00;29.70;;;;;;;;;;5056616;28;20032;-79
2022/12/11 03:00:49;;;;;;;73.47;27.98;;;;;;;;;;5056563;28;20021;-79
2022/12/11 03:03:15;;;;;;;73.82;27.95;;;;;;;;;;5073029;28;20389;-79
2022/12/11 03:05:40;;;;;;;65.82;26.67;;;;;;;;;;5056502;28;20032;-78
2022/12/11 03:08:06;;;;;;;71.05;27.73;;;;;;;;;;5039767;28;20040;-78
2022/12/11 03:10:31;;;;;;;62.95;29.77;;;;;;;;;;5057776;28;20036;-78
2022/12/11 03:12:57;;;;;;;61.53;28.17;;;;;;;;;;5070416;28;20032;-78
2022/12/11 03:15:48;;;;;;;61.72;27.15;;;;;;;;;;5059673;28;20024;-78
2022/12/11 03:18:49;;;;;;;59.53;26.17;;;;;;;;;;5048775;28;20068;-78
2022/12/11 03:21:26;;;;;;;59.15;25.65;;;;;;;;;;5059559;28;20029;-78
2022/12/11 03:24:01;;;;;;;58.53;26.67;;;;;;;;;;5059942;28;20090;-78
2022/12/11 03:26:26;;;;;;;61.30;26.63;;;;;;;;;;5043968;28;20043;-78
2022/12/11 03:28:57;;;;;;;61.05;27.38;;;;;;;;;;5042881;28;20472;-78
2022/12/11 03:31:36;;;;;;;66.68;33.00;;;;;;;;;;5059774;28;20411;-79
2022/12/11 03:34:03;;;;;;;70.93;31.50;;;;;;;;;;5076032;28;20064;-78
2022/12/11 03:36:33;;;;;;;65.10;28.90;;;;;;;;;;5042687;28;20024;-78
2022/12/11 03:39:11;;;;;;;78.25;30.67;;;;;;;;;;5042801;28;20383;-78
2022/12/11 03:41:36;;;;;;;76.63;30.38;;;;;;;;;;5043887;28;20024;-78
2022/12/11 03:44:02;;;;;;;72.93;30.48;;;;;;;;;;5076780;28;20487;-78
2022/12/11 03:46:30;;;;;;;68.40;29.05;;;;;;;;;;5058882;28;20380;-79
2022/12/11 03:48:59;;;;;;;61.78;26.65;;;;;;;;;;5042596;28;20031;-78
2022/12/11 03:51:25;;;;;;;66.80;29.00;;;;;;;;;;5059157;28;20064;-78
2022/12/11 03:53:50;;;;;;;79.78;32.45;;;;;;;;;;5058824;28;20069;-78
2022/12/11 03:56:15;;;;;;;67.35;29.67;;;;;;;;;;5058844;28;20036;-78
2022/12/11 03:58:41;;;;;;;69.00;28.45;;;;;;;;;;5041384;28;20017;-78
2022/12/11 04:01:10;;;;;;;67.30;29.63;;;;;;;;;;5058739;28;20020;-78
2022/12/11 04:03:36;;;;;;;74.85;29.70;;;;;;;;;;5042325;28;20037;-78
2022/12/11 04:06:01;;;;;;;69.53;28.90;;;;;;;;;;5041953;28;20032;-78
2022/12/11 04:08:27;;;;;;;63.70;26.85;;;;;;;;;;5076359;28;20479;-78
2022/12/11 04:11:33;;;;;;;61.38;26.05;;;;;;;;;;5041874;28;20117;-79
2022/12/11 04:13:39;;;;;;;56.15;25.40;;;;;;;;;;5061120;28;20173;-78
2022/12/11 04:16:04;;;;;;;59.35;25.48;;;;;;;;;;5076481;28;20040;-78
2022/12/11 04:24:16;;;;;;;70.18;32.30;;;;;;;;;;5076089;28;20138;-78
2022/12/11 04:26:45;;;;;;;76.80;35.80;;;;;;;;;;5091748;28;20131;-78
2022/12/11 04:29:10;;;;;;;69.82;32.75;;;;;;;;;;5041942;28;20064;-78
2022/12/11 04:31:36;;;;;;;77.50;32.60;;;;;;;;;;5074817;28;20059;-78
2022/12/11 04:34:01;;;;;;;77.15;34.20;;;;;;;;;;5057933;28;20058;-78
2022/12/11 04:36:27;;;;;;;76.18;34.05;;;;;;;;;;5076127;28;20032;-78
2022/12/11 04:38:52;;;;;;;81.65;32.40;;;;;;;;;;5076118;28;20028;-78
2022/12/11 04:41:18;;;;;;;76.50;34.97;;;;;;;;;;5074708;28;20441;-78
2022/12/11 04:43:46;;;;;;;74.30;33.90;;;;;;;;;;5057929;28;20036;-79
2022/12/11 04:46:13;;;;;;;65.32;31.05;;;;;;;;;;5075639;28;20032;-78
2022/12/11 04:48:39;;;;;;;64.38;31.65;;;;;;;;;;5058013;28;20498;-78
2022/12/11 04:51:05;;;;;;;68.80;34.13;;;;;;;;;;5041293;28;20122;-78
2022/12/11 04:53:30;;;;;;;66.43;31.58;;;;;;;;;;5077625;28;20020;-79
2022/12/11 04:55:56;;;;;;;62.50;31.25;;;;;;;;;;5077152;28;20028;-78
2022/12/11 04:58:22;;;;;;;57.13;28.10;;;;;;;;;;5075318;28;20464;-78
2022/12/11 05:00:47;;;;;;;52.22;27.95;;;;;;;;;;5057498;28;20507;-78
2022/12/11 05:03:12;;;;;;;47.47;26.33;;;;;;;;;;5075350;28;20506;-78
2022/12/11 05:05:38;;;;;;;48.05;26.02;;;;;;;;;;5075279;28;20029;-78
2022/12/11 05:08:04;;;;;;;42.55;24.55;;;;;;;;;;5075270;28;20029;-78
2022/12/11 05:10:29;;;;;;;39.17;22.25;;;;;;;;;;5075210;28;20082;-78
2022/12/11 05:12:55;;;;;;;46.90;23.98;;;;;;;;;;5075066;28;20052;-78
2022/12/11 05:15:20;;;;;;;39.47;22.77;;;;;;;;;;5075046;28;20078;-78
2022/12/11 05:17:45;;;;;;;35.08;19.30;;;;;;;;;;5075205;28;20020;-78
2022/12/11 05:20:11;;;;;;;29.48;17.15;;;;;;;;;;5074904;28;20021;-78
2022/12/11 05:22:37;;;;;;;27.83;16.83;;;;;;;;;;5057190;28;20445;-77
2022/12/11 05:25:02;;;;;;;18.48;11.18;;;;;;;;;;5057183;28;20032;-79
2022/12/11 05:27:28;;;;;;;19.35;11.63;;;;;;;;;;5056957;28;20119;-78
2022/12/11 05:29:54;;;;;;;18.55;11.13;;;;;;;;;;5075401;28;20025;-79
2022/12/11 05:32:19;;;;;;;14.88;8.35;;;;;;;;;;5076456;28;20024;-79
2022/12/11 05:34:44;;;;;;;11.25;6.93;;;;;;;;;;5079309;28;20093;-78
2022/12/11 05:37:10;;;;;;;6.57;4.43;;;;;;;;;;5074641;28;20125;-78
2022/12/11 05:39:36;;;;;;;5.75;4.03;;;;;;;;;;5074680;28;20032;-78
2022/12/11 05:42:01;;;;;;;9.82;4.13;;;;;;;;;;5074650;28;20035;-78
2022/12/11 05:44:27;;;;;;;3.03;2.40;;;;;;;;;;5074845;28;20029;-78
2022/12/11 05:46:52;;;;;;;3.08;2.05;;;;;;;;;;5074458;28;20032;-79
2022/12/11 05:49:18;;;;;;;4.55;2.17;;;;;;;;;;5074410;28;20028;-78
2022/12/11 05:51:43;;;;;;;1.80;1.70;;;;;;;;;;5056673;28;20449;-79
2022/12/11 05:54:09;;;;;;;2.83;1.80;;;;;;;;;;5074680;28;20055;-78
2022/12/11 05:56:34;;;;;;;2.20;1.75;;;;;;;;;;5074489;28;20033;-78
2022/12/11 05:59:00;;;;;;;2.50;1.90;;;;;;;;;;5074284;28;20111;-78
2022/12/11 06:01:27;;;;;;;4.93;2.08;;;;;;;;;;5056497;28;20024;-78
2022/12/11 06:03:53;;;;;;;4.75;2.08;;;;;;;;;;5074611;28;20524;-77
2022/12/11 06:06:18;;;;;;;4.53;2.97;;;;;;;;;;5039686;28;20031;-77
2022/12/11 06:08:48;;;;;;;6.38;5.50;;;;;;;;;;5039599;28;20372;-78
2022/12/11 06:11:13;;;;;;;12.60;10.75;;;;;;;;;;5089806;28;20449;-78
2022/12/11 06:13:39;;;;;;;13.77;9.45;;;;;;;;;;5052662;28;20045;-78
2022/12/11 06:16:05;;;;;;;31.02;21.10;;;;;;;;;;5052905;28;20072;-78
2022/12/11 06:18:31;;;;;;;16.00;10.27;;;;;;;;;;5036165;28;20029;-77
2022/12/11 06:20:56;;;;;;;22.33;16.02;;;;;;;;;;5069057;28;20078;-78
2022/12/11 06:23:22;;;;;;;64.45;39.58;;;;;;;;;;5054792;28;20031;-78
2022/12/11 06:25:47;;;;;;;6.47;5.78;;;;;;;;;;5052927;28;20048;-79
2022/12/11 06:28:13;;;;;;;3.63;2.90;;;;;;;;;;5053940;28;20365;-77
2022/12/11 06:30:38;;;;;;;3.13;2.10;;;;;;;;;;5054035;28;20033;-78
2022/12/11 06:33:04;;;;;;;4.32;2.22;;;;;;;;;;5054079;28;20112;-77
2022/12/11 06:35:29;;;;;;;5.75;3.13;;;;;;;;;;5052980;28;20465;-78
2022/12/11 06:37:55;;;;;;;3.17;2.50;;;;;;;;;;5053849;28;20441;-78
2022/12/11 06:40:21;;;;;;;3.70;2.63;;;;;;;;;;5036044;28;20063;-78
2022/12/11 06:42:46;;;;;;;3.28;2.40;;;;;;;;;;5053853;28;20446;-77
2022/12/11 06:45:13;;;;;;;4.57;3.75;;;;;;;;;;5054012;28;20462;-78
2022/12/11 06:47:39;;;;;;;5.10;2.80;;;;;;;;;;5054345;28;20039;-78
2022/12/11 06:50:05;;;;;;;3.70;2.75;;;;;;;;;;5036174;28;20123;-79
2022/12/11 06:52:30;;;;;;;2.25;2.05;;;;;;;;;;5053671;28;20078;-78
2022/12/11 06:54:55;;;;;;;2.63;2.42;;;;;;;;;;5035694;28;20110;-78
2022/12/11 06:57:21;;;;;;;4.88;2.50;;;;;;;;;;5036409;28;20072;-78
2022/12/11 06:59:46;;;;;;;36.83;21.80;;;;;;;;;;5053788;28;20063;-78
2022/12/11 07:02:13;;;;;;;6.68;3.35;;;;;;;;;;5052405;28;20033;-77
2022/12/11 07:04:39;;;;;;;9.90;4.53;;;;;;;;;;5052660;28;20044;-78
2022/12/11 07:07:04;;;;;;;13.25;9.07;;;;;;;;;;5035976;28;20029;-77
2022/12/11 07:09:30;;;;;;;10.43;7.60;;;;;;;;;;5052404;28;20396;-78
2022/12/11 07:11:56;;;;;;;4.55;3.00;;;;;;;;;;5058033;28;20392;-78
2022/12/11 07:14:21;;;;;;;4.63;2.60;;;;;;;;;;5073700;28;20090;-77
2022/12/11 07:16:46;;;;;;;3.42;2.63;;;;;;;;;;5056511;28;20020;-78
2022/12/11 07:19:12;;;;;;;3.72;2.65;;;;;;;;;;5073638;28;20024;-78
2022/12/11 07:21:37;;;;;;;3.38;2.38;;;;;;;;;;5073432;28;20021;-77
2022/12/11 07:24:03;;;;;;;4.20;2.75;;;;;;;;;;5073613;28;20029;-78
2022/12/11 07:26:29;;;;;;;2.70;2.45;;;;;;;;;;5073865;28;20629;-78
2022/12/11 07:28:57;;;;;;;3.33;2.40;;;;;;;;;;5073635;28;20036;-78
2022/12/11 07:31:23;;;;;;;4.18;1.98;;;;;;;;;;5055955;28;20048;-78
2022/12/11 07:33:53;;;;;;;3.15;2.38;;;;;;;;;;5057892;28;20040;-78
2022/12/11 07:36:19;;;;;;;2.85;1.98;;;;;;;;;;5059246;28;20349;-78
2022/12/11 07:38:44;;;;;;;3.42;2.40;;;;;;;;;;5076826;28;20040;-78
2022/12/11 07:41:11;;;;;;;2.67;1.88;;;;;;;;;;5076851;28;20063;-79
2022/12/11 07:43:36;;;;;;;5.10;3.40;;;;;;;;;;5076775;28;20025;-77
2022/12/11 07:46:03;;;;;;;2.97;2.50;;;;;;;;;;5076786;28;20032;-78
2022/12/11 07:48:28;;;;;;;5.18;3.90;;;;;;;;;;5059044;28;20032;-78
2022/12/11 07:50:54;;;;;;;4.63;4.03;;;;;;;;;;5059094;28;20071;-77
2022/12/11 07:53:19;;;;;;;7.07;5.50;;;;;;;;;;5058812;28;20036;-78
2022/12/11 07:55:45;;;;;;;3.35;2.60;;;;;;;;;;5076540;28;20028;-79
2022/12/11 07:58:10;;;;;;;2.80;1.92;;;;;;;;;;5076547;28;20029;-78
2022/12/11 08:00:36;;;;;;;3.17;2.20;;;;;;;;;;5059233;28;20025;-78
2022/12/11 08:03:01;;;;;;;2.53;2.13;;;;;;;;;;5041889;28;20035;-78
2022/12/11 08:05:26;;;;;;;2.92;2.22;;;;;;;;;;5076682;28;20352;-78
2022/12/11 08:07:52;;;;;;;2.63;1.88;;;;;;;;;;5076372;28;20463;-78
2022/12/11 08:10:17;;;;;;;2.22;1.80;;;;;;;;;;5076517;28;20025;-78
2022/12/11 08:12:43;;;;;;;2.45;2.00;;;;;;;;;;5076499;28;20375;-78
2022/12/11 08:15:09;;;;;;;2.22;1.80;;;;;;;;;;5076149;28;20132;-78
2022/12/11 08:17:34;;;;;;;3.38;1.52;;;;;;;;;;5076096;28;20060;-78
2022/12/11 08:20:00;;;;;;;2.80;1.90;;;;;;;;;;5058270;28;20032;-77
2022/12/11 08:22:25;;;;;;;4.22;2.90;;;;;;;;;;5076127;28;20025;-77
2022/12/11 08:24:50;;;;;;;13.95;4.65;;;;;;;;;;5076114;28;20066;-78
2022/12/11 08:27:16;;;;;;;12.32;7.88;;;;;;;;;;5075989;28;20031;-78
2022/12/11 08:29:41;;;;;;;5.63;3.47;;;;;;;;;;5058157;28;20029;-77
2022/12/11 08:32:07;;;;;;;10.27;6.60;;;;;;;;;;5076019;28;20111;-77
2022/12/11 08:34:32;;;;;;;16.40;11.68;;;;;;;;;;5067422;28;20028;-77
2022/12/11 08:36:58;;;;;;;10.20;8.25;;;;;;;;;;5080497;28;20021;-78
2022/12/11 08:39:24;;;;;;;8.98;7.30;;;;;;;;;;5076914;28;20021;-78
2022/12/11 08:41:49;;;;;;;5.78;4.30;;;;;;;;;;5077099;28;20449;-77
2022/12/11 08:44:15;;;;;;;5.93;3.65;;;;;;;;;;5075485;28;20032;-78
2022/12/11 08:46:40;;;;;;;4.20;2.83;;;;;;;;;;5091294;28;20028;-78
2022/12/11 08:49:06;;;;;;;10.32;4.97;;;;;;;;;;5075584;28;20029;-77
2022/12/11 08:51:31;;;;;;;5.45;3.47;;;;;;;;;;5075537;28;20513;-77
2022/12/11 08:53:58;;;;;;;7.07;4.40;;;;;;;;;;5075343;28;20115;-77
2022/12/11 08:56:24;;;;;;;4.95;2.97;;;;;;;;;;5057643;28;20028;-77
2022/12/11 08:58:49;;;;;;;5.82;3.50;;;;;;;;;;5075465;28;20032;-77
2022/12/11 09:01:24;;;;;;;8.95;3.10;;;;;;;;;;5075735;28;20029;-78
2022/12/11 09:03:50;;;;;;;8.45;4.53;;;;;;;;;;5041374;28;20067;-78
2022/12/11 09:06:18;;;;;;;4.05;2.88;;;;;;;;;;5075193;28;20158;-78
2022/12/11 09:08:44;;;;;;;40.50;21.00;;;;;;;;;;5091054;28;20028;-78
2022/12/11 09:11:14;;;;;;;4.55;2.42;;;;;;;;;;5040856;28;20020;-78
2022/12/11 09:13:39;;;;;;;7.50;5.32;;;;;;;;;;5056969;28;20051;-79
2022/12/11 09:16:09;;;;;;;7.68;6.55;;;;;;;;;;5057227;28;20032;-78
2022/12/11 09:18:36;;;;;;;15.00;11.32;;;;;;;;;;5057137;28;20025;-78
2022/12/11 09:21:05;;;;;;;6.30;4.53;;;;;;;;;;5075025;28;20046;-78
2022/12/11 09:23:31;;;;;;;5.17;3.20;;;;;;;;;;5057786;28;20080;-79
2022/12/11 09:25:57;;;;;;;6.60;3.50;;;;;;;;;;5040539;28;20107;-77
2022/12/11 09:28:23;;;;;;;6.03;3.95;;;;;;;;;;5074739;28;20051;-78
2022/12/11 09:30:49;;;;;;;4.07;3.08;;;;;;;;;;5090130;28;20028;-78
2022/12/11 09:33:15;;;;;;;6.90;4.03;;;;;;;;;;5040327;28;20024;-78
2022/12/11 09:35:40;;;;;;;3.78;2.80;;;;;;;;;;5056869;28;20036;-78
2022/12/11 09:38:06;;;;;;;4.53;3.05;;;;;;;;;;5056751;28;20025;-77
2022/12/11 09:40:31;;;;;;;4.38;3.20;;;;;;;;;;5041418;28;20119;-78
2022/12/11 09:43:24;;;;;;;4.35;3.13;;;;;;;;;;5040619;28;20040;-79
2022/12/11 09:45:50;;;;;;;5.65;2.83;;;;;;;;;;5070818;28;20036;-77
2022/12/11 09:48:16;;;;;;;14.93;7.80;;;;;;;;;;5040033;28;20031;-77
2022/12/11 09:50:41;;;;;;;6.60;4.35;;;;;;;;;;5039946;28;20020;-77
2022/12/11 09:53:11;;;;;;;16.50;11.50;;;;;;;;;;5056812;28;20021;-76
2022/12/11 09:55:55;;;;;;;;;;;;;;;;;;5040141;28;20036;-77
2022/12/11 09:58:32;;;;;;;11.90;6.55;;;;;;;;;;5076873;28;20002;-78
2022/12/11 10:01:21;;;;;;;9.45;4.60;;;;;;;;;;5040743;28;20028;-77
2022/12/11 10:03:56;;;;;;;8.07;4.97;;;;;;;;;;5075355;28;20031;-77
2022/12/11 10:06:41;;;;;;;6.05;3.30;;;;;;;;;;5040354;28;20029;-77
2022/12/11 10:09:27;;;;;;;6.72;4.43;;;;;;;;;;5074733;28;20029;-78
2022/12/11 10:11:58;;;;;;;9.68;5.57;;;;;;;;;;5056475;28;20049;-77
2022/12/11 10:15:01;;;;;;;9.43;5.63;;;;;;;;;;5039865;28;20040;-78
2022/12/11 10:17:30;;;;;;;8.38;6.82;;;;;;;;;;5075294;28;20048;-78
2022/12/11 10:19:57;;;;;;;7.90;4.35;;;;;;;;;;5089758;28;20032;-77
2022/12/11 10:22:27;;;;;;;6.90;4.07;;;;;;;;;;5039854;28;20128;-77
2022/12/11 10:24:59;;;;;;;13.25;5.65;;;;;;;;;;5040241;28;20068;-78
2022/12/11 10:27:30;;;;;;;17.15;10.70;;;;;;;;;;5039651;28;20070;-79
2022/12/11 10:30:00;;;;;;;13.95;9.07;;;;;;;;;;5073955;28;20028;-78
2022/12/11 10:32:32;;;;;;;14.40;10.30;;;;;;;;;;5056076;28;20028;-77
2022/12/11 10:35:00;;;;;;;26.52;16.85;;;;;;;;;;5041465;28;20063;-77
2022/12/11 10:37:26;;;;;;;18.33;11.88;;;;;;;;;;5089642;28;20090;-77
2022/12/11 10:39:51;;;;;;;21.80;12.43;;;;;;;;;;5055964;28;20032;-78
2022/12/11 10:42:19;;;;;;;12.10;7.97;;;;;;;;;;5073924;28;20060;-78
2022/12/11 10:45:01;;;;;;;10.50;6.45;;;;;;;;;;5056323;28;20060;-78
2022/12/11 10:47:26;;;;;;;11.27;5.93;;;;;;;;;;5056000;28;20029;-77
2022/12/11 10:49:54;;;;;;;8.73;5.30;;;;;;;;;;5073697;28;20029;-77
2022/12/11 10:52:34;;;;;;;8.38;4.95;;;;;;;;;;5056019;28;20024;-77
2022/12/11 10:55:05;;;;;;;10.32;5.82;;;;;;;;;;5056272;28;20420;-77
2022/12/11 10:57:34;;;;;;;9.75;5.70;;;;;;;;;;5039074;28;20028;-78
2022/12/11 10:59:59;;;;;;;10.02;5.30;;;;;;;;;;5039307;28;20040;-77
2022/12/11 11:02:31;;;;;;;11.65;5.38;;;;;;;;;;5039247;28;20033;-77
2022/12/11 11:04:57;;;;;;;6.03;4.03;;;;;;;;;;5039303;28;20434;-78
2022/12/11 11:07:46;;;;;;;7.50;4.35;;;;;;;;;;5041172;28;20028;-77
2022/12/11 11:10:13;;;;;;;10.98;5.20;;;;;;;;;;5077389;28;20453;-77
2022/12/11 11:12:44;;;;;;;11.25;6.70;;;;;;;;;;5059230;28;20464;-78
2022/12/11 11:15:14;;;;;;;14.35;8.80;;;;;;;;;;5043123;28;20456;-79
2022/12/11 11:18:02;;;;;;;9.73;5.00;;;;;;;;;;5059278;28;20032;-78
2022/12/11 11:20:28;;;;;;;7.07;4.65;;;;;;;;;;5059204;28;20024;-78
2022/12/11 11:22:56;;;;;;;11.85;6.15;;;;;;;;;;5059362;28;20353;-78
2022/12/11 11:25:25;;;;;;;9.05;5.78;;;;;;;;;;5042863;28;20449;-78
2022/12/11 11:27:57;;;;;;;16.30;7.18;;;;;;;;;;5077338;28;20021;-77
2022/12/11 11:30:25;;;;;;;13.20;5.30;;;;;;;;;;5059177;28;20021;-78
2022/12/11 11:32:53;;;;;;;12.55;5.43;;;;;;;;;;5059144;28;20024;-77
2022/12/11 11:35:21;;;;;;;10.68;5.88;;;;;;;;;;5059321;28;20071;-77
2022/12/11 11:38:16;;;;;;;11.38;6.30;;;;;;;;;;5084599;28;20024;-77
2022/12/11 11:40:52;;;;;;;14.25;6.65;;;;;;;;;;5059017;28;20455;-77
2022/12/11 11:43:39;;;;;;;11.20;5.60;;;;;;;;;;5058926;28;20063;-78
2022/12/11 11:46:52;;;;;;;6.65;3.92;;;;;;;;;;5058850;28;20520;-78
2022/12/11 11:49:35;;;;;;;7.93;4.40;;;;;;;;;;5070394;28;20067;-77
2022/12/11 11:52:06;;;;;;;6.82;3.30;;;;;;;;;;5058990;28;20036;-78
2022/12/11 11:54:34;;;;;;;4.97;3.13;;;;;;;;;;5042769;28;20040;-77
2022/12/11 11:57:02;;;;;;;5.18;2.83;;;;;;;;;;5042480;28;20035;-77
2022/12/11 11:59:33;;;;;;;2.50;2.15;;;;;;;;;;5042634;28;20036;-78
2022/12/11 12:01:59;;;;;;;4.47;2.88;;;;;;;;;;5042217;28;20472;-78
2022/12/11 12:04:27;;;;;;;4.15;2.70;;;;;;;;;;5076745;28;20032;-77
2022/12/11 12:07:14;;;;;;;8.48;4.72;;;;;;;;;;5058871;28;20472;-78
2022/12/11 12:10:10;;;;;;;4.90;3.17;;;;;;;;;;5058859;28;20047;-77
2022/12/11 12:12:51;;;;;;;6.72;3.75;;;;;;;;;;5076318;28;20064;-78
2022/12/11 12:15:47;;;;;;;7.95;4.72;;;;;;;;;;5076176;28;20040;-78
2022/12/11 12:18:36;;;;;;;8.32;4.65;;;;;;;;;;5042505;28;20376;-78
2022/12/11 12:21:32;;;;;;;5.72;3.75;;;;;;;;;;5058245;28;20449;-78
2022/12/11 12:24:28;;;;;;;7.88;5.00;;;;;;;;;;5076145;28;20030;-78
2022/12/11 12:26:59;;;;;;;9.57;4.35;;;;;;;;;;5058294;28;20055;-78
2022/12/11 12:30:02;;;;;;;5.03;3.28;;;;;;;;;;5059624;28;20032;-76
2022/12/11 12:32:43;;;;;;;4.63;3.47;;;;;;;;;;5075544;28;20037;-77
2022/12/11 12:35:26;;;;;;;6.90;3.90;;;;;;;;;;5058336;28;20437;-78
2022/12/11 12:37:56;;;;;;;8.43;3.65;;;;;;;;;;5041465;28;20393;-78
2022/12/11 12:40:36;;;;;;;8.15;3.90;;;;;;;;;;5058137;28;20028;-78
2022/12/11 12:43:29;;;;;;;7.00;4.05;;;;;;;;;;5075619;28;20032;-77
2022/12/11 12:46:13;;;;;;;5.20;3.20;;;;;;;;;;5060497;28;20028;-78
2022/12/11 12:48:38;;;;;;;5.00;3.50;;;;;;;;;;5075710;28;20063;-77
2022/12/11 12:51:04;;;;;;;4.03;3.28;;;;;;;;;;5025190;28;20067;-78
2022/12/11 12:53:32;;;;;;;5.32;3.55;;;;;;;;;;5075344;28;20029;-77
2022/12/11 12:55:57;;;;;;;4.75;3.30;;;;;;;;;;5057994;28;20028;-78
2022/12/11 12:58:35;;;;;;;7.47;4.53;;;;;;;;;;5040894;28;20082;-78
2022/12/11 13:01:15;;;;;;;10.57;6.15;;;;;;;;;;5075501;28;20031;-77
2022/12/11 13:03:53;;;;;;;;;;;;;;;;;;5075753;28;20438;-77
2022/12/11 13:06:43;;;;;;;8.45;5.03;;;;;;;;;;5075192;28;19959;-77
2022/12/11 13:09:23;;;;;;;10.95;6.30;;;;;;;;;;5043016;28;20020;-79
2022/12/11 13:11:52;;;;;;;14.70;6.68;;;;;;;;;;5026751;28;20075;-78
2022/12/11 13:14:17;;;;;;;10.20;5.97;;;;;;;;;;5041322;28;20047;-78
2022/12/11 13:16:44;;;;;;;11.50;6.35;;;;;;;;;;5075096;28;20025;-78
2022/12/11 13:19:22;;;;;;;13.13;6.90;;;;;;;;;;5024070;28;20094;-77
2022/12/11 13:22:18;;;;;;;12.48;6.60;;;;;;;;;;5074951;28;20032;-78
2022/12/11 13:24:51;;;;;;;12.90;7.15;;;;;;;;;;5050166;28;20047;-77
2022/12/11 13:27:24;;;;;;;13.25;7.22;;;;;;;;;;5057597;28;20404;-78
2022/12/11 13:29:49;;;;;;;14.98;7.60;;;;;;;;;;5073828;28;20193;-77
2022/12/11 13:32:14;;;;;;;16.75;8.63;;;;;;;;;;5057147;28;20484;-77
2022/12/11 13:34:43;;;;;;;14.50;8.65;;;;;;;;;;5075103;28;20043;-78
2022/12/11 13:37:24;;;;;;;15.05;9.45;;;;;;;;;;5073342;28;20430;-78
2022/12/11 13:39:50;;;;;;;17.80;9.10;;;;;;;;;;5074629;28;20025;-78
2022/12/11 13:42:22;;;;;;;15.15;8.50;;;;;;;;;;5040273;28;20394;-78
2022/12/11 13:44:48;;;;;;;11.63;7.72;;;;;;;;;;5040431;28;20381;-77
2022/12/11 13:47:14;;;;;;;13.32;8.05;;;;;;;;;;5040190;28;20033;-78
2022/12/11 13:49:41;;;;;;;13.52;8.30;;;;;;;;;;5039953;28;20047;-78
2022/12/11 13:52:18;;;;;;;13.43;7.80;;;;;;;;;;5059450;28;20036;-79
2022/12/11 13:54:48;;;;;;;14.90;8.07;;;;;;;;;;5057131;28;20055;-77
2022/12/11 13:57:19;;;;;;;15.63;8.40;;;;;;;;;;5090055;28;20032;-77
2022/12/11 13:59:55;;;;;;;16.27;9.02;;;;;;;;;;5056607;28;20078;-77
2022/12/11 14:02:25;;;;;;;13.70;7.28;;;;;;;;;;5089947;28;20036;-77
2022/12/11 14:04:55;;;;;;;14.13;8.40;;;;;;;;;;5074228;28;20085;-78
2022/12/11 14:07:31;;;;;;;23.80;13.23;;;;;;;;;;5056965;28;20041;-77
2022/12/11 14:10:02;;;;;;;15.63;9.93;;;;;;;;;;5056848;28;20181;-77
2022/12/11 14:12:29;;;;;;;17.30;10.35;;;;;;;;;;5040326;28;20045;-78
2022/12/11 14:14:55;;;;;;;15.45;8.75;;;;;;;;;;5057557;28;20028;-77
2022/12/11 14:17:30;;;;;;;26.08;15.02;;;;;;;;;;5056367;28;20025;-78
2022/12/11 14:19:57;;;;;;;43.13;25.27;;;;;;;;;;5056304;28;20103;-78
2022/12/11 14:22:27;;;;;;;35.92;24.40;;;;;;;;;;5089570;28;20051;-77
2022/12/11 14:25:02;;;;;;;25.52;15.65;;;;;;;;;;5056265;28;20020;-77
2022/12/11 14:27:28;;;;;;;16.88;9.30;;;;;;;;;;5074076;28;20094;-77
2022/12/11 14:29:53;;;;;;;16.60;9.60;;;;;;;;;;5073957;28;20130;-78
2022/12/11 14:32:35;;;;;;;23.98;13.35;;;;;;;;;;5073999;28;20025;-78
2022/12/11 14:35:02;;;;;;;17.02;10.35;;;;;;;;;;5074340;28;20369;-78
2022/12/11 14:37:27;;;;;;;16.65;8.82;;;;;;;;;;5056106;28;20524;-78
2022/12/11 14:39:57;;;;;;;17.52;10.48;;;;;;;;;;5077591;28;20708;-78
2022/12/11 14:42:25;;;;;;;17.42;10.10;;;;;;;;;;5063266;28;20028;-77
2022/12/11 14:44:56;;;;;;;15.95;9.07;;;;;;;;;;5061039;28;20178;-77
2022/12/11 14:47:26;;;;;;;18.80;10.32;;;;;;;;;;5060195;28;20059;-77